• Join FlightAware (Why Join?)
  • Login
  • US Flag 
07:35AM EST


 

Airport Tracker/Info


-or-


 

Live Flight TrackerFlight Track Log ✈ N2VH ✈ 30-Apr-2013 ✈ KFMY - KTOC

Flight Track Log - Related Links

Times and Time Zones

All times are in EDT time to prevent confusion due to time zone crossing. See the N2VH flight status page for this flight to view local times or setup timezone preferences in your user account.

Time Position Orientation Groundspeed Altitude Reporting Facility
EDT Latitude Longitude Course Direction KTS MPH feet Rate Location/Type
10:22AM 26.8287 -81.8667 North  Level FlightAware Approximate
10:22AM 26.8089 -81.8672 357° North 148 170 6,100  Level Miami Center
10:23AM 26.8697 -81.8689 357° North  Level FlightAware Approximate
10:23AM 26.8483 -81.8736 352° North 148 170 6,100  Level Miami Center
10:24AM 26.9106 -81.8715 357° North  Level FlightAware Approximate
10:24AM 26.8900 -81.8778 355° North 148 170 6,000  Level Miami Center
10:25AM 26.9515 -81.8740 357° North  Level FlightAware Approximate
10:25AM 26.9314 -81.8817 355° North 148 170 8,000  Level Miami Center
10:26AM 26.9925 -81.8766 357° North  Level FlightAware Approximate
10:26AM 26.9692 -81.8789 North 143 165 6,900  Level Miami Center
10:27AM 27.0334 -81.8792 357° North  Level FlightAware Approximate
10:27AM 27.0044 -81.8850 351° North 137 158 7,400  Level Miami Center
10:28AM 27.0744 -81.8817 357° North  Level FlightAware Approximate
10:28AM 27.0439 -81.8867 358° North 137 158 7,800  Level Miami Center
10:29AM 27.0817 -81.8836 North 137 158 8,500 600 Climbing Miami Center
10:30AM 27.1153 -81.8806 North 137 158 9,000 480 Climbing Miami Center
10:31AM 27.1506 -81.8842 355° North 132 152 9,500 480 Climbing Miami Center
10:32AM 27.1878 -81.8906 351° North 132 152 10,000 300 Climbing Miami Center
10:33AM 27.2272 -81.9017 346° North 132 152 10,100  Climbing Miami Center
10:34AM 27.2706 -81.9106 350° North 148 170 10,100  Level Miami Center
10:35AM 27.3144 -81.9147 355° North 153 176 10,200  Climbing Miami Center
10:36AM 27.3581 -81.9214 352° North 153 176 10,100 -60 Descending Miami Center
10:37AM 27.4014 -81.9303 350° North 153 176 10,100  Level Miami Center
10:38AM 27.4431 -81.9344 355° North 153 176 10,100  Level Miami Center
10:39AM 27.4844 -81.9433 349° North 153 176 10,100  Level Miami Center
10:40AM 27.5261 -81.9497 352° North 153 176 10,100  Level Miami Center
10:41AM 27.5656 -81.9564 351° North 159 183 10,100  Level Miami Center
10:42AM 27.6089 -81.9653 350° North 159 183 10,100  Level Miami Center
10:43AM 27.6567 -81.9744 350° North 159 183 10,100  Level Miami Center
10:44AM 27.6983 -81.9764 358° North 159 183 10,100  Level Miami Center
10:45AM 27.7439 -81.9806 355° North 159 183 10,100  Level Miami Center
10:46AM 27.7814 -81.9869 351° North 153 176 10,100  Level Miami Center
10:47AM 27.8247 -81.9961 349° North 153 176 10,100 -60 Level Miami Center
10:48AM 27.8686 -82.0003 355° North 153 176 10,000  Descending Miami Center
10:49AM 27.8833 -82.0000 North 157 181 10,100 60 Climbing Tampa TRACON
10:50AM 27.9333 -82.0000 360° North 158 182 10,100 -60 Level Tampa TRACON
10:51AM 27.9667 -82.0167 336° Northwest 157 181 10,000  Descending Tampa TRACON
10:52AM 28.0167 -82.0333 344° North 148 170 10,100  Climbing Tampa TRACON
10:53AM 28.0500 -82.0500 336° Northwest 145 167 10,100  Level Tampa TRACON
10:54AM 28.0833 -82.0833 319° Northwest 153 176 10,100 -60 Level Tampa TRACON
10:55AM 28.1167 -82.1000 336° Northwest 149 171 10,000 -60 Descending Tampa TRACON
10:56AM 28.1500 -82.1167 336° Northwest 152 175 10,000  Level Tampa TRACON
10:57AM 28.1833 -82.1500 319° Northwest 147 169 10,100  Climbing Tampa TRACON
10:58AM 28.2167 -82.1667 336° Northwest 145 167 10,000 -60 Descending Tampa TRACON
10:59AM 28.2500 -82.1833 336° Northwest 145 167 10,000  Level Tampa TRACON
11:00AM 28.3000 -82.2167 330° Northwest 144 166 10,000  Level Tampa TRACON
11:01AM 28.3333 -82.2333 336° Northwest 145 167 10,000  Level Tampa TRACON
11:02AM 28.3667 -82.2500 336° Northwest 148 170 10,000  Level Tampa TRACON
11:03AM 28.4000 -82.2833 319° Northwest 149 171 10,000  Level Tampa TRACON
11:04AM 28.4333 -82.3000 336° Northwest 149 171 10,100  Climbing Tampa TRACON
11:06AM 28.5267 -82.3656 328° Northwest 152 175 10,000  Descending Jacksonville Center
11:07AM 28.5642 -82.3892 331° Northwest 154 177 10,100  Climbing Jacksonville Center
11:08AM 28.5997 -82.4103 332° Northwest 149 171 10,000  Descending Jacksonville Center
11:09AM 28.6375 -82.4314 334° Northwest 152 175 10,100  Climbing Jacksonville Center
11:10AM 28.6731 -82.4525 332° Northwest 150 173 10,100 -60 Level Jacksonville Center
11:11AM 28.7128 -82.4783 330° Northwest 146 168 10,000 -60 Descending Jacksonville Center
11:12AM 28.7461 -82.4994 331° Northwest 147 169 10,000  Level Jacksonville Center
11:13AM 28.7817 -82.5231 330° Northwest 144 166 10,100  Climbing Jacksonville Center
11:14AM 28.8194 -82.5442 334° Northwest 142 163 10,100 -60 Level Jacksonville Center
11:15AM 28.8569 -82.5678 331° Northwest 144 166 10,000 -60 Descending Jacksonville Center
11:16AM 28.8906 -82.5939 326° Northwest 143 165 10,000  Level Jacksonville Center
11:17AM 28.9239 -82.6128 334° Northwest 140 161 10,100  Climbing Jacksonville Center
11:18AM 28.9469 -82.6244 336° Northwest 140 161 10,100 -120 Level Jacksonville Center
11:18AM 28.9572 -82.6339 321° Northwest 139 160 10,000 -120 Descending Jacksonville Center
11:19AM 28.9844 -82.6458 339° North 140 161 10,000  Level Jacksonville Center
11:19AM 28.9928 -82.6553 315° West 143 165 10,000 60 Level Jacksonville Center
11:20AM 29.0178 -82.6669 338° Northwest 140 161 10,100  Climbing Jacksonville Center
11:20AM 29.0283 -82.6789 315° West 138 159 10,000 -120 Descending Jacksonville Center
11:21AM 29.0533 -82.6906 338° Northwest 140 161 10,000  Level Jacksonville Center
11:22AM 29.0806 -82.7119 326° Northwest 146 168 10,100  Climbing Jacksonville Center
11:23AM 29.1142 -82.7358 328° Northwest 146 168 10,100 -60 Level Jacksonville Center
11:24AM 29.1475 -82.7594 328° Northwest 146 168 10,000 -60 Descending Jacksonville Center
11:25AM 29.1831 -82.7831 330° Northwest 146 168 10,000  Level Jacksonville Center
11:26AM 29.2164 -82.8022 333° Northwest 146 168 10,100  Climbing Jacksonville Center
11:27AM 29.2497 -82.8258 328° Northwest 146 168 10,000 -60 Descending Jacksonville Center
11:28AM 29.2833 -82.8497 328° Northwest 146 168 10,000  Level Jacksonville Center
11:29AM 29.3186 -82.8711 332° Northwest 146 168 10,000  Level Jacksonville Center
11:30AM 29.3542 -82.8925 332° Northwest 146 168 10,000  Level Jacksonville Center
11:31AM 29.3875 -82.9139 331° Northwest 141 162 10,000  Level Jacksonville Center
11:32AM 29.4253 -82.9356 333° Northwest 141 162 10,000  Level Jacksonville Center
11:33AM 29.4586 -82.9569 331° Northwest 141 162 10,000  Level Jacksonville Center
11:34AM 29.5003 -82.9808 333° Northwest 147 169 10,000  Level Jacksonville Center
11:35AM 29.5358 -83.0000 335° Northwest 142 163 10,100  Climbing Jacksonville Center
11:36AM 29.5692 -83.0239 328° Northwest 145 167 10,000 -60 Descending Jacksonville Center
11:37AM 29.6006 -83.0478 327° Northwest 138 159 10,000  Level Jacksonville Center
11:38AM 29.6422 -83.0550 351° North 137 158 10,000  Level Jacksonville Center
11:39AM 29.6819 -83.0553 360° North 142 163 10,000  Level Jacksonville Center
11:40AM 29.7214 -83.0575 357° North 142 163 10,000  Level Jacksonville Center
11:41AM 29.7633 -83.0578 360° North 142 163 10,100  Climbing Jacksonville Center
11:42AM 29.8028 -83.0600 357° North 142 163 10,000 -60 Descending Jacksonville Center
11:43AM 29.8447 -83.0625 357° North 148 170 10,000  Level Jacksonville Center
11:44AM 29.8844 -83.0628 360° North 141 162 10,000  Level Jacksonville Center
11:45AM 29.9261 -83.0675 354° North 141 162 10,000  Level Jacksonville Center
11:46AM 29.9678 -83.0675 360° North 141 162 10,000  Level Jacksonville Center
11:47AM 30.0097 -83.0700 357° North 141 162 10,000  Level Jacksonville Center
11:48AM 30.0514 -83.0750 354° North 141 162 10,000  Level Jacksonville Center
11:49AM 30.0953 -83.0750 360° North 141 162 10,000 -60 Level Jacksonville Center
11:50AM 30.1369 -83.0775 357° North 141 162 9,900  Descending Jacksonville Center
11:51AM 30.1619 -83.0800 355° North 150 173 10,000  Climbing Jacksonville Center
11:51AM 30.1767 -83.0800 360° North 141 162 9,900 -120 Descending Jacksonville Center
11:52AM 30.2058 -83.0825 356° North 151 174 9,900 60 Level Jacksonville Center
11:52AM 30.2183 -83.0778 18° North 141 162 10,000 60 Climbing Jacksonville Center
11:53AM 30.2456 -83.0825 351° North 150 173 10,000  Level Jacksonville Center
11:53AM 30.2600 -83.0825 360° North 141 162 10,000  Level Jacksonville Center
11:54AM 30.2872 -83.0850 355° North 148 170 10,000 60 Level Jacksonville Center
11:54AM 30.3019 -83.0850 360° North 141 162 10,100  Climbing Jacksonville Center
11:55AM 30.3331 -83.0850 360° North 150 173 10,000 -120 Descending Jacksonville Center
11:55AM 30.3436 -83.0875 348° North 141 162 10,000  Level Jacksonville Center
11:56AM 30.3728 -83.0900 356° North 151 174 10,000 60 Level Jacksonville Center
11:56AM 30.3875 -83.0875 North 141 162 10,100  Climbing Jacksonville Center
11:57AM 30.4189 -83.0900 356° North 147 169 10,000 -60 Descending Jacksonville Center
11:58AM 30.4583 -83.0925 357° North 149 171 10,000  Level Jacksonville Center
11:59AM 30.4981 -83.0950 357° North 150 173 10,000  Level Jacksonville Center
12:00PM 30.5400 -83.0953 360° North 150 173 10,000 -60 Level Jacksonville Center
12:01PM 30.5942 -83.0978 358° North 141 162 9,900  Descending Jacksonville Center
12:02PM 30.6233 -83.1003 356° North 150 173 10,000  Climbing Jacksonville Center
12:03PM 30.6653 -83.1003 360° North 149 171 10,000  Level Jacksonville Center
12:04PM 30.7089 -83.1028 357° North 150 173 10,000  Level Jacksonville Center
12:05PM 30.7528 -83.1053 357° North 150 173 10,000  Level Jacksonville Center
12:06PM 30.7967 -83.1103 354° North 147 169 10,000  Level Jacksonville Center
12:07PM 30.8364 -83.1128 357° North 147 169 10,000  Level Jacksonville Center
12:08PM 30.8803 -83.1178 354° North 152 175 10,000  Level Jacksonville Center
12:09PM 30.9239 -83.1178 360° North 149 171 10,000  Level Jacksonville Center
12:10PM 30.9636 -83.1203 357° North 155 178 10,000  Level Jacksonville Center
12:11PM 31.0075 -83.1203 360° North 150 173 10,000  Level Jacksonville Center
12:12PM 31.0533 -83.1253 355° North 147 169 10,000  Level Jacksonville Center
12:13PM 31.0931 -83.1278 357° North 149 171 10,000  Level Jacksonville Center
12:14PM 31.1369 -83.1306 357° North 148 170 10,100  Climbing Jacksonville Center
12:15PM 31.1808 -83.1331 357° North 155 178 10,000 -60 Descending Jacksonville Center
12:16PM 31.2267 -83.1306 North 168 193 10,000  Level Jacksonville Center
12:17PM 31.2686 -83.1356 354° North 163 188 10,000  Level Jacksonville Center
12:18PM 31.3103 -83.1381 357° North 151 174 10,100  Climbing Jacksonville Center
12:19PM 31.3519 -83.1456 351° North 146 168 10,000 -60 Descending Jacksonville Center
12:20PM 31.3939 -83.1433 North 146 168 10,000  Level Jacksonville Center
12:21PM 31.4375 -83.1433 360° North 146 168 10,000  Level Jacksonville Center
12:22PM 31.4794 -83.1436 360° North 146 168 10,000  Level Jacksonville Center
12:23PM 31.5211 -83.1461 357° North 146 168 10,000  Level Jacksonville Center
12:24PM 31.5628 -83.1436 North 141 162 10,000  Level Jacksonville Center
12:25PM 31.6067 -83.1439 360° North 141 162 10,000  Level Jacksonville Center
12:26PM 31.6486 -83.1392 North 141 162 10,000  Level Jacksonville Center
12:27PM 31.6881 -83.1417 357° North 141 162 10,000  Level Jacksonville Center
12:28PM 31.7300 -83.1492 351° North 141 162 10,000  Level Jacksonville Center
12:29PM 31.7717 -83.1492 360° North 141 162 10,000  Level Jacksonville Center
12:30PM 31.8114 -83.1542 354° North 141 162 10,000  Level Jacksonville Center
12:31PM 31.8531 -83.1592 354° North 141 162 10,000  Level Jacksonville Center
12:32PM 31.8947 -83.1592 360° North 141 162 10,100  Climbing Jacksonville Center
12:34PM 31.9833 -83.1667 356° North 149 171 10,000 -60 Descending Atlanta TRACON
12:35PM 32.0333 -83.1667 360° North 148 170 10,000  Level Atlanta TRACON
12:36PM 32.0667 -83.1667 360° North 147 169 10,000  Level Atlanta TRACON
12:37PM 32.1167 -83.1667 360° North 148 170 10,000  Level Atlanta TRACON
12:38PM 32.1500 -83.1667 360° North 148 170 10,100  Climbing Atlanta TRACON
12:39PM 32.2000 -83.1667 360° North 149 171 10,000  Descending Atlanta TRACON
12:40PM 32.2333 -83.1667 360° North 145 167 10,100  Climbing Atlanta TRACON
12:41PM 32.2667 -83.1833 337° Northwest 146 168 10,100 -60 Level Atlanta TRACON
12:42PM 32.3167 -83.1833 360° North 149 171 10,000 -60 Descending Atlanta TRACON
12:43PM 32.3500 -83.1833 360° North 149 171 10,000  Level Atlanta TRACON
12:44PM 32.4000 -83.1833 360° North 149 171 10,000  Level Atlanta TRACON
12:45PM 32.4333 -83.1833 360° North 148 170 10,000  Level Atlanta TRACON
12:46PM 32.4833 -83.1833 360° North 148 170 10,000  Level Atlanta TRACON
12:47PM 32.5167 -83.1833 360° North 148 170 10,100  Climbing Atlanta TRACON
12:48PM 32.5667 -83.1833 360° North 149 171 10,100  Level Atlanta TRACON
12:49PM 32.6000 -83.1833 360° North 147 169 10,100  Level Atlanta TRACON
12:50PM 32.6500 -83.2000 344° North 148 170 10,100  Level Atlanta TRACON
12:51PM 32.6833 -83.2000 360° North 145 167 10,200 -120 Climbing Atlanta TRACON
12:52PM 32.7167 -83.2000 360° North 155 178 9,900 -360 Descending Atlanta TRACON
12:53PM 32.7667 -83.2000 360° North 162 186 9,500 -420 Descending Atlanta TRACON
12:54PM 32.8167 -83.2000 360° North 170 196 9,100 -300 Descending Atlanta TRACON
12:55PM 32.8667 -83.2000 360° North 162 186 8,900 -360 Descending Atlanta TRACON
12:56PM 32.9000 -83.2000 360° North 167 192 8,400 -420 Descending Atlanta TRACON
12:57PM 32.9500 -83.2000 360° North 166 191 8,100 -420 Descending Atlanta TRACON
12:58PM 33.0000 -83.2167 344° North 164 189 7,600 -480 Descending Atlanta TRACON
12:59PM 33.0500 -83.2167 360° North 167 192 7,200 -360 Descending Atlanta TRACON
01:00PM 33.0833 -83.2167 360° North 160 184 6,900 -420 Descending Atlanta TRACON
01:01PM 33.1333 -83.2167 360° North 166 191 6,400 -540 Descending Atlanta TRACON
01:02PM 33.1833 -83.2167 360° North 167 192 5,900 -540 Descending Atlanta TRACON
01:04PM 33.2266 -83.2167 North  Level FlightAware Approximate
01:11PM 33.5106 -83.2183 357° North  Level FlightAware Approximate
01:12PM 33.5511 -83.2208 357° North  Level FlightAware Approximate
01:13PM 33.5916 -83.2232 357° North  Level FlightAware Approximate
01:14PM 33.6321 -83.2257 357° North  Level FlightAware Approximate
01:15PM 33.6726 -83.2282 357° North  Level FlightAware Approximate
01:16PM 33.7131 -83.2306 357° North  Level FlightAware Approximate
01:17PM 33.7536 -83.2331 357° North  Level FlightAware Approximate
01:18PM 33.7941 -83.2356 357° North  Level FlightAware Approximate
01:19PM 33.8346 -83.2381 357° North  Level FlightAware Approximate
01:20PM 33.8751 -83.2405 357° North  Level FlightAware Approximate
01:21PM 33.9156 -83.2430 357° North  Level FlightAware Approximate
01:22PM 33.9561 -83.2455 357° North  Level FlightAware Approximate
01:23PM 33.9966 -83.2480 357° North  Level FlightAware Approximate
01:24PM 34.0371 -83.2505 357° North  Level FlightAware Approximate
01:25PM 34.0776 -83.2530 357° North  Level FlightAware Approximate
01:26PM 34.1181 -83.2554 357° North  Level FlightAware Approximate
01:27PM 34.1586 -83.2579 357° North  Level FlightAware Approximate
01:28PM 34.1991 -83.2604 357° North  Level FlightAware Approximate
01:29PM 34.2396 -83.2629 357° North  Level FlightAware Approximate
01:30PM 34.2801 -83.2654 357° North  Level FlightAware Approximate
01:31PM 34.3206 -83.2667 North  Level FlightAware Approximate
01:32PM 34.3612 -83.2675 356° North  Level FlightAware Approximate
01:33PM 34.4016 -83.2706 356° North  Level FlightAware Approximate
01:34PM 34.4421 -83.2737 356° North  Level FlightAware Approximate
01:35PM 34.4826 -83.2768 356° North  Level FlightAware Approximate
01:36PM 34.5230 -83.2800 356° North  Level FlightAware Approximate
01:37PM 34.5635 -83.2831 356° North  Level FlightAware Approximate
01:38PM 34.5833 -83.2833 North  Level FlightAware Approximate
01:39PM 34.5928 -83.2964 North  Level Estimated
01:40PM 34.5928 -83.2964 North  Level Estimated
01:41PM 34.5928 -83.2964 North  Level Estimated
01:42PM 34.5928 -83.2964 North  Level Estimated
01:43PM 34.5928 -83.2964 North  Level Estimated
01:44PM 34.5928 -83.2964 North  Level Estimated
01:45PM 34.5928 -83.2964 North  Level Estimated
01:46PM 34.5928 -83.2964 North  Level Estimated
01:47PM 34.5928 -83.2964 North  Level Estimated
01:48PM 34.5928 -83.2964 North  Level Estimated
01:49PM 34.5928 -83.2964 North  Level Estimated